FFO weather

Wright-Patterson Air Force Base
Dayton, Ohio, United States

Public forecast

Using degrees Fahrenheit for public forecast. Weather courtesy of forecast.io.

Current aviation weather report (METAR) for Wright-Patterson Air Force Base

Retrieved 2020/02/26 02:56 UTC (59 minutes ago):

KFFO 260256Z 36007KT 2SM -DZ BR BKN003 OVC009 03/03 A2988 RMK AO2A SLP124 P0001 60001 T00310025 5////

Aviation forecast (TAF) for Wright-Patterson Air Force Base

Retrieved 2020-02-26 03:21 UTC (34 minutes ago):

TAF KFFO 260300Z 2603/2709 02009KT 3200 -DZ BR OVC004 QNH2975INS BECMG 2608/2609 02006KT 3200 BR OVC005 QNH2981INS BECMG 2615/2616 01006KT 9000 -SHRA OVC007 610077 QNH2982INS BECMG 2617/2618 01006KT 8000 -SHRASN OVC007 610077 QNH2982INS BECMG 2621/2622 31012KT 9000 -SHSN BKN015 610157 QNH2984INS BECMG 2702/2703 31012KT 9999 NSW BKN020 620207 QNH2984INS TX04/2621Z TN00/2614Z